sensor_id;sensor_type;location;lat;lon;timestamp;temperature;humidity
20568;DHT22;10442;49.932;11.592;2024-03-08T00:00:11;2.20;66.10
20568;DHT22;10442;49.932;11.592;2024-03-08T00:02:45;2.20;66.10
20568;DHT22;10442;49.932;11.592;2024-03-08T00:05:14;2.20;66.00
20568;DHT22;10442;49.932;11.592;2024-03-08T00:07:42;2.20;66.00
20568;DHT22;10442;49.932;11.592;2024-03-08T00:10:12;2.20;66.00
20568;DHT22;10442;49.932;11.592;2024-03-08T00:12:44;2.20;66.10
20568;DHT22;10442;49.932;11.592;2024-03-08T00:15:14;2.20;66.20
20568;DHT22;10442;49.932;11.592;2024-03-08T00:17:44;2.20;66.10
20568;DHT22;10442;49.932;11.592;2024-03-08T00:20:12;2.20;65.90
20568;DHT22;10442;49.932;11.592;2024-03-08T00:22:40;2.20;65.90
20568;DHT22;10442;49.932;11.592;2024-03-08T00:25:08;2.10;66.00
20568;DHT22;10442;49.932;11.592;2024-03-08T00:27:42;2.10;66.50
20568;DHT22;10442;49.932;11.592;2024-03-08T00:30:10;2.20;66.90
20568;DHT22;10442;49.932;11.592;2024-03-08T00:32:40;2.20;67.20
20568;DHT22;10442;49.932;11.592;2024-03-08T00:35:08;2.20;67.60
20568;DHT22;10442;49.932;11.592;2024-03-08T00:37:36;2.20;67.60
20568;DHT22;10442;49.932;11.592;2024-03-08T00:40:04;2.20;67.70
20568;DHT22;10442;49.932;11.592;2024-03-08T00:42:34;2.20;67.60
20568;DHT22;10442;49.932;11.592;2024-03-08T00:45:02;2.20;67.50
20568;DHT22;10442;49.932;11.592;2024-03-08T00:47:30;2.20;67.40
20568;DHT22;10442;49.932;11.592;2024-03-08T00:49:58;2.20;67.20
20568;DHT22;10442;49.932;11.592;2024-03-08T00:52:25;2.20;67.10
20568;DHT22;10442;49.932;11.592;2024-03-08T00:54:53;2.20;67.10
20568;DHT22;10442;49.932;11.592;2024-03-08T00:57:21;2.20;67.00
20568;DHT22;10442;49.932;11.592;2024-03-08T00:59:49;2.10;66.90
20568;DHT22;10442;49.932;11.592;2024-03-08T01:02:16;2.10;66.90
20568;DHT22;10442;49.932;11.592;2024-03-08T01:04:46;2.10;67.00
20568;DHT22;10442;49.932;11.592;2024-03-08T01:07:14;2.10;66.90
20568;DHT22;10442;49.932;11.592;2024-03-08T01:09:42;2.00;67.00
20568;DHT22;10442;49.932;11.592;2024-03-08T01:12:10;2.00;67.00
20568;DHT22;10442;49.932;11.592;2024-03-08T01:14:38;1.90;67.00
20568;DHT22;10442;49.932;11.592;2024-03-08T01:17:05;1.90;66.90
20568;DHT22;10442;49.932;11.592;2024-03-08T01:19:33;1.90;67.10
20568;DHT22;10442;49.932;11.592;2024-03-08T01:22:01;1.90;67.10
20568;DHT22;10442;49.932;11.592;2024-03-08T01:24:28;1.90;67.20
20568;DHT22;10442;49.932;11.592;2024-03-08T01:26:55;1.80;67.20
20568;DHT22;10442;49.932;11.592;2024-03-08T01:29:23;1.80;67.20
20568;DHT22;10442;49.932;11.592;2024-03-08T01:31:50;1.80;68.20
20568;DHT22;10442;49.932;11.592;2024-03-08T01:34:19;1.80;67.60
20568;DHT22;10442;49.932;11.592;2024-03-08T01:36:47;1.90;67.70
20568;DHT22;10442;49.932;11.592;2024-03-08T01:39:14;1.70;67.60
20568;DHT22;10442;49.932;11.592;2024-03-08T01:41:42;1.70;67.70
20568;DHT22;10442;49.932;11.592;2024-03-08T01:44:09;1.70;67.90
20568;DHT22;10442;49.932;11.592;2024-03-08T01:46:37;1.60;67.90
20568;DHT22;10442;49.932;11.592;2024-03-08T01:49:04;1.60;67.80
20568;DHT22;10442;49.932;11.592;2024-03-08T01:51:32;1.60;67.90
20568;DHT22;10442;49.932;11.592;2024-03-08T01:54:02;1.60;67.90
20568;DHT22;10442;49.932;11.592;2024-03-08T01:56:31;1.60;68.20
20568;DHT22;10442;49.932;11.592;2024-03-08T01:58:59;1.60;68.20
20568;DHT22;10442;49.932;11.592;2024-03-08T02:01:28;1.50;68.20
20568;DHT22;10442;49.932;11.592;2024-03-08T02:03:56;1.50;68.40
20568;DHT22;10442;49.932;11.592;2024-03-08T02:06:24;1.50;68.40
20568;DHT22;10442;49.932;11.592;2024-03-08T02:08:51;1.60;68.60
20568;DHT22;10442;49.932;11.592;2024-03-08T02:11:19;1.50;68.50
20568;DHT22;10442;49.932;11.592;2024-03-08T02:13:48;1.50;68.30
20568;DHT22;10442;49.932;11.592;2024-03-08T02:16:21;1.50;68.40
20568;DHT22;10442;49.932;11.592;2024-03-08T02:18:48;1.50;68.40
20568;DHT22;10442;49.932;11.592;2024-03-08T02:21:17;1.40;68.30
20568;DHT22;10442;49.932;11.592;2024-03-08T02:23:48;1.40;68.30
20568;DHT22;10442;49.932;11.592;2024-03-08T02:26:15;1.40;68.30
20568;DHT22;10442;49.932;11.592;2024-03-08T02:28:44;1.40;68.20
20568;DHT22;10442;49.932;11.592;2024-03-08T02:31:12;1.40;68.30
20568;DHT22;10442;49.932;11.592;2024-03-08T02:33:39;1.30;68.30
20568;DHT22;10442;49.932;11.592;2024-03-08T02:36:07;1.30;68.40
20568;DHT22;10442;49.932;11.592;2024-03-08T02:38:34;1.30;68.50
20568;DHT22;10442;49.932;11.592;2024-03-08T02:41:02;1.30;68.30
20568;DHT22;10442;49.932;11.592;2024-03-08T02:43:31;1.20;68.20
20568;DHT22;10442;49.932;11.592;2024-03-08T02:45:58;1.20;68.30
20568;DHT22;10442;49.932;11.592;2024-03-08T02:48:26;1.20;68.40
20568;DHT22;10442;49.932;11.592;2024-03-08T02:50:54;1.20;68.40
20568;DHT22;10442;49.932;11.592;2024-03-08T02:53:21;1.10;68.40
20568;DHT22;10442;49.932;11.592;2024-03-08T02:55:50;1.10;68.60
20568;DHT22;10442;49.932;11.592;2024-03-08T02:58:17;1.10;68.90
20568;DHT22;10442;49.932;11.592;2024-03-08T03:00:45;1.00;68.70
20568;DHT22;10442;49.932;11.592;2024-03-08T03:03:13;1.00;68.70
20568;DHT22;10442;49.932;11.592;2024-03-08T03:05:40;1.00;68.80
20568;DHT22;10442;49.932;11.592;2024-03-08T03:08:15;1.00;68.80
20568;DHT22;10442;49.932;11.592;2024-03-08T03:10:44;1.00;68.80
20568;DHT22;10442;49.932;11.592;2024-03-08T03:13:12;1.00;68.80
20568;DHT22;10442;49.932;11.592;2024-03-08T03:15:39;0.90;68.90
20568;DHT22;10442;49.932;11.592;2024-03-08T03:18:09;0.90;69.00
20568;DHT22;10442;49.932;11.592;2024-03-08T03:20:37;0.90;69.10
20568;DHT22;10442;49.932;11.592;2024-03-08T03:23:11;0.90;69.10
20568;DHT22;10442;49.932;11.592;2024-03-08T03:25:43;0.90;69.10
20568;DHT22;10442;49.932;11.592;2024-03-08T03:28:10;0.80;69.10
20568;DHT22;10442;49.932;11.592;2024-03-08T03:30:41;0.80;69.00
20568;DHT22;10442;49.932;11.592;2024-03-08T03:33:09;0.80;69.10
20568;DHT22;10442;49.932;11.592;2024-03-08T03:35:38;0.80;69.10
20568;DHT22;10442;49.932;11.592;2024-03-08T03:38:06;0.70;69.20
20568;DHT22;10442;49.932;11.592;2024-03-08T03:40:39;0.70;69.10
20568;DHT22;10442;49.932;11.592;2024-03-08T03:43:08;0.70;69.10
20568;DHT22;10442;49.932;11.592;2024-03-08T03:45:37;0.70;69.10
20568;DHT22;10442;49.932;11.592;2024-03-08T03:48:06;0.70;69.40
20568;DHT22;10442;49.932;11.592;2024-03-08T03:50:35;0.60;69.40
20568;DHT22;10442;49.932;11.592;2024-03-08T03:53:04;0.60;69.50
20568;DHT22;10442;49.932;11.592;2024-03-08T03:55:36;0.60;69.60
20568;DHT22;10442;49.932;11.592;2024-03-08T03:58:06;0.60;69.60
20568;DHT22;10442;49.932;11.592;2024-03-08T04:00:33;0.60;69.60
20568;DHT22;10442;49.932;11.592;2024-03-08T04:03:01;0.60;69.60
20568;DHT22;10442;49.932;11.592;2024-03-08T04:05:28;0.60;69.90
20568;DHT22;10442;49.932;11.592;2024-03-08T04:07:56;0.60;70.00
20568;DHT22;10442;49.932;11.592;2024-03-08T04:10:24;0.60;70.30
20568;DHT22;10442;49.932;11.592;2024-03-08T04:12:51;0.60;70.30
20568;DHT22;10442;49.932;11.592;2024-03-08T04:15:19;0.60;70.40
20568;DHT22;10442;49.932;11.592;2024-03-08T04:17:48;0.60;70.60
20568;DHT22;10442;49.932;11.592;2024-03-08T04:20:16;0.60;70.50
20568;DHT22;10442;49.932;11.592;2024-03-08T04:22:45;0.60;70.60
20568;DHT22;10442;49.932;11.592;2024-03-08T04:25:17;0.60;70.70
20568;DHT22;10442;49.932;11.592;2024-03-08T04:27:45;0.60;70.80
20568;DHT22;10442;49.932;11.592;2024-03-08T04:30:12;0.60;70.70
20568;DHT22;10442;49.932;11.592;2024-03-08T04:32:41;0.60;71.20
20568;DHT22;10442;49.932;11.592;2024-03-08T04:35:10;0.60;71.60
20568;DHT22;10442;49.932;11.592;2024-03-08T04:37:39;0.60;72.10
20568;DHT22;10442;49.932;11.592;2024-03-08T04:40:07;0.70;72.30
20568;DHT22;10442;49.932;11.592;2024-03-08T04:42:35;0.70;72.40
20568;DHT22;10442;49.932;11.592;2024-03-08T04:45:05;0.80;72.00
20568;DHT22;10442;49.932;11.592;2024-03-08T04:47:32;0.80;72.30
20568;DHT22;10442;49.932;11.592;2024-03-08T04:50:00;0.80;73.40
20568;DHT22;10442;49.932;11.592;2024-03-08T04:52:28;0.90;74.50
20568;DHT22;10442;49.932;11.592;2024-03-08T04:54:55;1.10;75.70
20568;DHT22;10442;49.932;11.592;2024-03-08T04:57:23;1.20;76.10
20568;DHT22;10442;49.932;11.592;2024-03-08T04:59:50;1.40;76.20
20568;DHT22;10442;49.932;11.592;2024-03-08T05:02:18;1.60;76.20
20568;DHT22;10442;49.932;11.592;2024-03-08T05:04:45;1.80;75.90
20568;DHT22;10442;49.932;11.592;2024-03-08T05:07:12;1.90;75.50
20568;DHT22;10442;49.932;11.592;2024-03-08T05:09:40;2.20;75.10
20568;DHT22;10442;49.932;11.592;2024-03-08T05:12:08;2.20;74.30
20568;DHT22;10442;49.932;11.592;2024-03-08T05:14:36;2.30;73.80
20568;DHT22;10442;49.932;11.592;2024-03-08T05:17:03;2.40;73.20
20568;DHT22;10442;49.932;11.592;2024-03-08T05:19:33;2.50;73.00
20568;DHT22;10442;49.932;11.592;2024-03-08T05:22:02;2.60;72.70
20568;DHT22;10442;49.932;11.592;2024-03-08T05:24:30;2.60;72.40
20568;DHT22;10442;49.932;11.592;2024-03-08T05:26:58;2.70;72.30
20568;DHT22;10442;49.932;11.592;2024-03-08T05:29:28;2.70;72.20
20568;DHT22;10442;49.932;11.592;2024-03-08T05:31:56;2.80;72.00
20568;DHT22;10442;49.932;11.592;2024-03-08T05:34:25;2.90;72.10
20568;DHT22;10442;49.932;11.592;2024-03-08T05:36:53;2.90;72.10
20568;DHT22;10442;49.932;11.592;2024-03-08T05:39:22;2.90;72.20
20568;DHT22;10442;49.932;11.592;2024-03-08T05:41:51;3.00;72.20
20568;DHT22;10442;49.932;11.592;2024-03-08T05:44:18;3.10;72.20
20568;DHT22;10442;49.932;11.592;2024-03-08T05:46:46;3.20;72.20
20568;DHT22;10442;49.932;11.592;2024-03-08T05:49:14;3.30;72.00
20568;DHT22;10442;49.932;11.592;2024-03-08T05:51:42;3.40;71.90
20568;DHT22;10442;49.932;11.592;2024-03-08T05:54:11;3.50;71.80
20568;DHT22;10442;49.932;11.592;2024-03-08T05:56:43;3.60;71.60
20568;DHT22;10442;49.932;11.592;2024-03-08T05:59:12;3.60;71.30
20568;DHT22;10442;49.932;11.592;2024-03-08T06:01:40;3.80;71.10
20568;DHT22;10442;49.932;11.592;2024-03-08T06:04:10;3.80;70.80
20568;DHT22;10442;49.932;11.592;2024-03-08T06:06:39;3.90;70.60
20568;DHT22;10442;49.932;11.592;2024-03-08T06:09:08;4.00;70.60
20568;DHT22;10442;49.932;11.592;2024-03-08T06:11:39;4.00;70.40
20568;DHT22;10442;49.932;11.592;2024-03-08T06:14:07;4.10;70.20
20568;DHT22;10442;49.932;11.592;2024-03-08T06:16:35;4.20;70.20
20568;DHT22;10442;49.932;11.592;2024-03-08T06:19:03;4.20;70.00
20568;DHT22;10442;49.932;11.592;2024-03-08T06:21:30;4.30;70.00
20568;DHT22;10442;49.932;11.592;2024-03-08T06:24:00;4.30;69.90
20568;DHT22;10442;49.932;11.592;2024-03-08T06:26:28;4.40;69.80
20568;DHT22;10442;49.932;11.592;2024-03-08T06:28:57;4.40;69.70
20568;DHT22;10442;49.932;11.592;2024-03-08T06:31:26;4.50;69.70
20568;DHT22;10442;49.932;11.592;2024-03-08T06:33:53;4.50;69.70
20568;DHT22;10442;49.932;11.592;2024-03-08T06:36:25;4.50;69.60
20568;DHT22;10442;49.932;11.592;2024-03-08T06:38:52;4.60;69.60
20568;DHT22;10442;49.932;11.592;2024-03-08T06:41:20;4.60;69.40
20568;DHT22;10442;49.932;11.592;2024-03-08T06:43:48;4.70;69.30
20568;DHT22;10442;49.932;11.592;2024-03-08T06:46:19;4.80;69.20
20568;DHT22;10442;49.932;11.592;2024-03-08T06:48:48;4.90;69.10
20568;DHT22;10442;49.932;11.592;2024-03-08T06:51:17;4.90;68.80
20568;DHT22;10442;49.932;11.592;2024-03-08T06:53:45;5.00;68.80
20568;DHT22;10442;49.932;11.592;2024-03-08T06:56:13;5.20;69.00
20568;DHT22;10442;49.932;11.592;2024-03-08T06:58:41;5.30;68.90
20568;DHT22;10442;49.932;11.592;2024-03-08T07:01:09;5.60;68.90
20568;DHT22;10442;49.932;11.592;2024-03-08T07:03:42;6.00;68.10
20568;DHT22;10442;49.932;11.592;2024-03-08T07:06:12;6.40;67.30
20568;DHT22;10442;49.932;11.592;2024-03-08T07:08:40;6.80;66.40
20568;DHT22;10442;49.932;11.592;2024-03-08T07:11:07;7.20;65.30
20568;DHT22;10442;49.932;11.592;2024-03-08T07:13:36;7.70;64.40
20568;DHT22;10442;49.932;11.592;2024-03-08T07:16:05;8.00;63.30
20568;DHT22;10442;49.932;11.592;2024-03-08T07:18:36;8.40;62.50
20568;DHT22;10442;49.932;11.592;2024-03-08T07:21:07;8.80;61.60
20568;DHT22;10442;49.932;11.592;2024-03-08T07:23:35;9.10;60.20
20568;DHT22;10442;49.932;11.592;2024-03-08T07:26:42;9.30;59.70
20568;DHT22;10442;49.932;11.592;2024-03-08T07:29:10;9.70;59.20
20568;DHT22;10442;49.932;11.592;2024-03-08T07:31:37;10.00;58.50
20568;DHT22;10442;49.932;11.592;2024-03-08T07:34:04;10.20;57.10
20568;DHT22;10442;49.932;11.592;2024-03-08T07:36:35;10.30;56.90
20568;DHT22;10442;49.932;11.592;2024-03-08T07:39:02;10.50;56.30
20568;DHT22;10442;49.932;11.592;2024-03-08T07:41:35;10.70;55.70
20568;DHT22;10442;49.932;11.592;2024-03-08T07:44:04;10.70;55.50
20568;DHT22;10442;49.932;11.592;2024-03-08T07:46:32;10.80;55.00
20568;DHT22;10442;49.932;11.592;2024-03-08T07:49:01;11.00;54.50
20568;DHT22;10442;49.932;11.592;2024-03-08T07:51:29;11.00;54.10
20568;DHT22;10442;49.932;11.592;2024-03-08T07:53:58;11.10;53.70
20568;DHT22;10442;49.932;11.592;2024-03-08T07:56:25;11.10;53.50
20568;DHT22;10442;49.932;11.592;2024-03-08T07:58:53;11.10;53.50
20568;DHT22;10442;49.932;11.592;2024-03-08T08:01:21;11.10;53.80
20568;DHT22;10442;49.932;11.592;2024-03-08T08:03:49;11.30;53.90
20568;DHT22;10442;49.932;11.592;2024-03-08T08:06:17;11.30;52.80
20568;DHT22;10442;49.932;11.592;2024-03-08T08:08:44;11.30;53.10
20568;DHT22;10442;49.932;11.592;2024-03-08T08:11:12;11.30;53.40
20568;DHT22;10442;49.932;11.592;2024-03-08T08:13:40;11.50;53.20
20568;DHT22;10442;49.932;11.592;2024-03-08T08:16:10;11.60;52.50
20568;DHT22;10442;49.932;11.592;2024-03-08T08:18:40;11.70;52.60
20568;DHT22;10442;49.932;11.592;2024-03-08T08:21:08;11.80;52.30
20568;DHT22;10442;49.932;11.592;2024-03-08T08:23:36;12.00;52.40
20568;DHT22;10442;49.932;11.592;2024-03-08T08:26:03;12.10;52.10
20568;DHT22;10442;49.932;11.592;2024-03-08T08:28:33;12.20;51.70
20568;DHT22;10442;49.932;11.592;2024-03-08T08:31:00;12.40;51.30
20568;DHT22;10442;49.932;11.592;2024-03-08T08:33:28;12.60;51.70
20568;DHT22;10442;49.932;11.592;2024-03-08T08:35:56;12.70;51.10
20568;DHT22;10442;49.932;11.592;2024-03-08T08:38:24;12.80;50.00
20568;DHT22;10442;49.932;11.592;2024-03-08T08:40:52;12.90;49.90
20568;DHT22;10442;49.932;11.592;2024-03-08T08:43:19;13.00;50.20
20568;DHT22;10442;49.932;11.592;2024-03-08T08:45:51;13.10;50.30
20568;DHT22;10442;49.932;11.592;2024-03-08T08:48:21;13.30;50.10
20568;DHT22;10442;49.932;11.592;2024-03-08T08:50:49;13.30;49.50
20568;DHT22;10442;49.932;11.592;2024-03-08T08:53:19;13.40;48.80
20568;DHT22;10442;49.932;11.592;2024-03-08T08:55:47;13.30;48.80
20568;DHT22;10442;49.932;11.592;2024-03-08T08:58:14;13.20;48.60
20568;DHT22;10442;49.932;11.592;2024-03-08T09:00:42;13.20;49.50
20568;DHT22;10442;49.932;11.592;2024-03-08T09:03:11;13.10;48.80
20568;DHT22;10442;49.932;11.592;2024-03-08T09:05:39;12.90;48.70
20568;DHT22;10442;49.932;11.592;2024-03-08T09:08:12;12.80;49.10
20568;DHT22;10442;49.932;11.592;2024-03-08T09:10:40;12.60;48.80
20568;DHT22;10442;49.932;11.592;2024-03-08T09:13:08;12.50;49.20
20568;DHT22;10442;49.932;11.592;2024-03-08T09:15:44;12.30;49.60
20568;DHT22;10442;49.932;11.592;2024-03-08T09:18:12;12.10;50.30
20568;DHT22;10442;49.932;11.592;2024-03-08T09:20:40;11.90;50.50
20568;DHT22;10442;49.932;11.592;2024-03-08T09:23:08;11.70;50.70
20568;DHT22;10442;49.932;11.592;2024-03-08T09:25:36;11.50;51.10
20568;DHT22;10442;49.932;11.592;2024-03-08T09:28:04;11.30;51.10
20568;DHT22;10442;49.932;11.592;2024-03-08T09:30:33;11.20;52.30
20568;DHT22;10442;49.932;11.592;2024-03-08T09:33:02;11.10;52.10
20568;DHT22;10442;49.932;11.592;2024-03-08T09:35:30;11.00;52.30
20568;DHT22;10442;49.932;11.592;2024-03-08T09:37:58;11.00;52.60
20568;DHT22;10442;49.932;11.592;2024-03-08T09:40:26;10.90;52.60
20568;DHT22;10442;49.932;11.592;2024-03-08T09:42:55;10.80;52.40
20568;DHT22;10442;49.932;11.592;2024-03-08T09:45:23;10.80;52.50
20568;DHT22;10442;49.932;11.592;2024-03-08T09:47:52;10.70;52.90
20568;DHT22;10442;49.932;11.592;2024-03-08T09:50:21;10.60;52.80
20568;DHT22;10442;49.932;11.592;2024-03-08T09:52:49;10.60;52.90
20568;DHT22;10442;49.932;11.592;2024-03-08T09:55:18;10.40;53.60
20568;DHT22;10442;49.932;11.592;2024-03-08T09:57:51;10.40;54.10
20568;DHT22;10442;49.932;11.592;2024-03-08T10:00:39;10.40;53.50
20568;DHT22;10442;49.932;11.592;2024-03-08T10:03:06;10.40;53.50
20568;DHT22;10442;49.932;11.592;2024-03-08T10:05:34;10.40;53.60
20568;DHT22;10442;49.932;11.592;2024-03-08T10:08:02;10.40;53.60
20568;DHT22;10442;49.932;11.592;2024-03-08T10:10:31;10.30;54.00
20568;DHT22;10442;49.932;11.592;2024-03-08T10:12:58;10.30;53.50
20568;DHT22;10442;49.932;11.592;2024-03-08T10:15:30;10.30;54.00
20568;DHT22;10442;49.932;11.592;2024-03-08T10:18:00;10.30;54.00
20568;DHT22;10442;49.932;11.592;2024-03-08T10:20:31;10.40;54.60
20568;DHT22;10442;49.932;11.592;2024-03-08T10:23:01;10.40;54.20
20568;DHT22;10442;49.932;11.592;2024-03-08T10:25:38;10.40;53.80
20568;DHT22;10442;49.932;11.592;2024-03-08T10:28:06;10.50;54.00
20568;DHT22;10442;49.932;11.592;2024-03-08T10:30:34;10.60;53.60
20568;DHT22;10442;49.932;11.592;2024-03-08T10:33:02;10.60;53.20
20568;DHT22;10442;49.932;11.592;2024-03-08T10:35:32;10.60;53.60
20568;DHT22;10442;49.932;11.592;2024-03-08T10:38:01;10.60;53.90
20568;DHT22;10442;49.932;11.592;2024-03-08T10:40:31;10.50;53.90
20568;DHT22;10442;49.932;11.592;2024-03-08T10:43:00;10.50;53.70
20568;DHT22;10442;49.932;11.592;2024-03-08T10:45:40;10.50;53.40
20568;DHT22;10442;49.932;11.592;2024-03-08T10:48:29;10.50;53.90
20568;DHT22;10442;49.932;11.592;2024-03-08T10:51:06;10.50;53.60
20568;DHT22;10442;49.932;11.592;2024-03-08T10:53:35;10.50;54.00
20568;DHT22;10442;49.932;11.592;2024-03-08T10:56:05;10.50;53.80
20568;DHT22;10442;49.932;11.592;2024-03-08T10:58:33;10.50;53.70
20568;DHT22;10442;49.932;11.592;2024-03-08T11:01:03;10.50;54.20
20568;DHT22;10442;49.932;11.592;2024-03-08T11:06:08;10.70;54.40
20568;DHT22;10442;49.932;11.592;2024-03-08T11:08:38;10.80;54.10
20568;DHT22;10442;49.932;11.592;2024-03-08T11:11:29;10.90;54.00
20568;DHT22;10442;49.932;11.592;2024-03-08T11:14:02;11.00;53.70
20568;DHT22;10442;49.932;11.592;2024-03-08T11:21:38;11.10;52.70
20568;DHT22;10442;49.932;11.592;2024-03-08T11:24:08;11.20;53.50
20568;DHT22;10442;49.932;11.592;2024-03-08T11:26:40;11.20;53.20
20568;DHT22;10442;49.932;11.592;2024-03-08T11:32:16;11.20;52.70
20568;DHT22;10442;49.932;11.592;2024-03-08T11:34:49;11.20;52.50
20568;DHT22;10442;49.932;11.592;2024-03-08T11:37:20;11.20;53.30
20568;DHT22;10442;49.932;11.592;2024-03-08T11:39:50;11.30;53.10
20568;DHT22;10442;49.932;11.592;2024-03-08T11:42:19;11.30;53.00
20568;DHT22;10442;49.932;11.592;2024-03-08T11:44:47;11.40;53.10
20568;DHT22;10442;49.932;11.592;2024-03-08T11:47:16;11.50;52.70
20568;DHT22;10442;49.932;11.592;2024-03-08T11:49:44;11.50;52.60
20568;DHT22;10442;49.932;11.592;2024-03-08T11:52:17;11.50;52.60
20568;DHT22;10442;49.932;11.592;2024-03-08T11:54:54;11.60;52.30
20568;DHT22;10442;49.932;11.592;2024-03-08T11:57:25;11.70;52.70
20568;DHT22;10442;49.932;11.592;2024-03-08T11:59:53;11.70;52.40
20568;DHT22;10442;49.932;11.592;2024-03-08T12:02:24;11.70;52.50
20568;DHT22;10442;49.932;11.592;2024-03-08T12:04:59;11.70;52.00
20568;DHT22;10442;49.932;11.592;2024-03-08T12:07:29;11.80;52.20
20568;DHT22;10442;49.932;11.592;2024-03-08T12:10:21;11.80;51.60
20568;DHT22;10442;49.932;11.592;2024-03-08T12:12:54;11.80;51.90
20568;DHT22;10442;49.932;11.592;2024-03-08T12:15:23;11.70;51.60
20568;DHT22;10442;49.932;11.592;2024-03-08T12:17:52;11.70;50.80
20568;DHT22;10442;49.932;11.592;2024-03-08T12:20:27;11.70;51.80
20568;DHT22;10442;49.932;11.592;2024-03-08T12:22:58;11.80;51.10
20568;DHT22;10442;49.932;11.592;2024-03-08T12:25:33;11.70;51.20
20568;DHT22;10442;49.932;11.592;2024-03-08T12:28:12;11.70;51.40
20568;DHT22;10442;49.932;11.592;2024-03-08T12:30:49;11.70;51.00
20568;DHT22;10442;49.932;11.592;2024-03-08T12:33:20;11.70;51.20
20568;DHT22;10442;49.932;11.592;2024-03-08T12:35:53;11.70;51.20
20568;DHT22;10442;49.932;11.592;2024-03-08T12:38:22;11.60;51.00
20568;DHT22;10442;49.932;11.592;2024-03-08T12:41:00;11.60;51.20
20568;DHT22;10442;49.932;11.592;2024-03-08T12:43:29;11.70;51.40
20568;DHT22;10442;49.932;11.592;2024-03-08T12:45:59;11.70;51.60
20568;DHT22;10442;49.932;11.592;2024-03-08T12:48:27;11.70;51.00
20568;DHT22;10442;49.932;11.592;2024-03-08T12:50:54;11.70;51.30
20568;DHT22;10442;49.932;11.592;2024-03-08T12:53:22;11.70;51.30
20568;DHT22;10442;49.932;11.592;2024-03-08T12:55:51;11.80;51.30
20568;DHT22;10442;49.932;11.592;2024-03-08T12:58:19;11.80;51.40
20568;DHT22;10442;49.932;11.592;2024-03-08T13:00:47;11.80;52.10
20568;DHT22;10442;49.932;11.592;2024-03-08T13:03:20;11.80;51.80
20568;DHT22;10442;49.932;11.592;2024-03-08T13:05:50;11.90;51.50
20568;DHT22;10442;49.932;11.592;2024-03-08T13:08:18;11.90;51.60
20568;DHT22;10442;49.932;11.592;2024-03-08T13:10:45;11.90;51.60
20568;DHT22;10442;49.932;11.592;2024-03-08T13:13:13;11.90;51.60
20568;DHT22;10442;49.932;11.592;2024-03-08T13:15:44;11.90;51.30
20568;DHT22;10442;49.932;11.592;2024-03-08T13:18:12;11.90;51.60
20568;DHT22;10442;49.932;11.592;2024-03-08T13:20:40;11.90;51.80
20568;DHT22;10442;49.932;11.592;2024-03-08T13:23:14;11.90;51.40
20568;DHT22;10442;49.932;11.592;2024-03-08T13:25:42;11.90;51.40
20568;DHT22;10442;49.932;11.592;2024-03-08T13:28:10;11.80;51.20
20568;DHT22;10442;49.932;11.592;2024-03-08T13:30:38;11.80;51.70
20568;DHT22;10442;49.932;11.592;2024-03-08T13:33:06;11.80;51.70
20568;DHT22;10442;49.932;11.592;2024-03-08T13:35:34;11.80;52.00
20568;DHT22;10442;49.932;11.592;2024-03-08T13:38:02;11.90;51.80
20568;DHT22;10442;49.932;11.592;2024-03-08T13:40:32;11.90;51.30
20568;DHT22;10442;49.932;11.592;2024-03-08T13:43:00;11.90;51.20
20568;DHT22;10442;49.932;11.592;2024-03-08T13:45:28;11.90;50.70
20568;DHT22;10442;49.932;11.592;2024-03-08T13:47:56;11.90;51.20
20568;DHT22;10442;49.932;11.592;2024-03-08T13:50:24;11.90;50.90
20568;DHT22;10442;49.932;11.592;2024-03-08T13:52:53;11.90;50.00
20568;DHT22;10442;49.932;11.592;2024-03-08T13:55:23;11.90;50.00
20568;DHT22;10442;49.932;11.592;2024-03-08T13:57:53;11.90;50.20
20568;DHT22;10442;49.932;11.592;2024-03-08T14:00:21;11.90;50.00
20568;DHT22;10442;49.932;11.592;2024-03-08T14:02:50;12.00;49.80
20568;DHT22;10442;49.932;11.592;2024-03-08T14:05:18;12.00;49.60
20568;DHT22;10442;49.932;11.592;2024-03-08T14:07:47;12.00;49.60
20568;DHT22;10442;49.932;11.592;2024-03-08T14:10:17;12.10;50.00
20568;DHT22;10442;49.932;11.592;2024-03-08T14:12:50;12.10;50.50
20568;DHT22;10442;49.932;11.592;2024-03-08T14:15:18;12.20;51.20
20568;DHT22;10442;49.932;11.592;2024-03-08T14:17:54;12.30;50.90
20568;DHT22;10442;49.932;11.592;2024-03-08T14:20:23;12.30;50.00
20568;DHT22;10442;49.932;11.592;2024-03-08T14:22:56;12.40;50.10
20568;DHT22;10442;49.932;11.592;2024-03-08T14:25:24;12.40;49.60
20568;DHT22;10442;49.932;11.592;2024-03-08T14:27:53;12.40;49.60
20568;DHT22;10442;49.932;11.592;2024-03-08T14:30:21;12.40;49.50
20568;DHT22;10442;49.932;11.592;2024-03-08T14:33:06;12.30;50.10
20568;DHT22;10442;49.932;11.592;2024-03-08T14:35:37;12.30;49.30
20568;DHT22;10442;49.932;11.592;2024-03-08T14:38:05;12.30;49.50
20568;DHT22;10442;49.932;11.592;2024-03-08T14:40:36;12.30;49.00
20568;DHT22;10442;49.932;11.592;2024-03-08T14:43:05;12.20;48.90
20568;DHT22;10442;49.932;11.592;2024-03-08T14:45:33;12.10;49.00
20568;DHT22;10442;49.932;11.592;2024-03-08T14:48:01;12.10;49.10
20568;DHT22;10442;49.932;11.592;2024-03-08T14:50:30;12.10;49.30
20568;DHT22;10442;49.932;11.592;2024-03-08T14:52:59;12.10;49.50
20568;DHT22;10442;49.932;11.592;2024-03-08T14:55:29;12.10;49.50
20568;DHT22;10442;49.932;11.592;2024-03-08T14:57:57;12.00;49.80
20568;DHT22;10442;49.932;11.592;2024-03-08T15:00:25;12.10;49.90
20568;DHT22;10442;49.932;11.592;2024-03-08T15:03:03;12.10;49.70
20568;DHT22;10442;49.932;11.592;2024-03-08T15:05:34;12.10;49.50
20568;DHT22;10442;49.932;11.592;2024-03-08T15:08:06;12.10;49.50
20568;DHT22;10442;49.932;11.592;2024-03-08T15:10:38;12.10;49.30
20568;DHT22;10442;49.932;11.592;2024-03-08T15:13:08;12.00;48.70
20568;DHT22;10442;49.932;11.592;2024-03-08T15:15:43;12.00;49.00
20568;DHT22;10442;49.932;11.592;2024-03-08T15:18:12;12.00;48.80
20568;DHT22;10442;49.932;11.592;2024-03-08T15:20:40;12.00;49.00
20568;DHT22;10442;49.932;11.592;2024-03-08T15:23:08;12.00;49.00
20568;DHT22;10442;49.932;11.592;2024-03-08T15:25:37;12.00;49.50
20568;DHT22;10442;49.932;11.592;2024-03-08T15:28:06;12.00;49.40
20568;DHT22;10442;49.932;11.592;2024-03-08T15:30:41;12.00;50.20
20568;DHT22;10442;49.932;11.592;2024-03-08T15:33:13;12.00;49.30
20568;DHT22;10442;49.932;11.592;2024-03-08T15:35:42;11.90;49.20
20568;DHT22;10442;49.932;11.592;2024-03-08T15:38:16;11.90;49.10
20568;DHT22;10442;49.932;11.592;2024-03-08T15:40:46;11.90;48.90
20568;DHT22;10442;49.932;11.592;2024-03-08T15:43:13;11.90;48.80
20568;DHT22;10442;49.932;11.592;2024-03-08T15:45:43;11.80;48.80